createdAt,value
2017-12-03T00:01:39.730Z,75.22
2017-12-03T00:04:07.289Z,81.28
2017-12-03T00:06:34.809Z,75.90
2017-12-03T00:09:02.362Z,78.47
2017-12-03T00:11:29.900Z,79.68
2017-12-03T00:13:57.541Z,81.10
2017-12-03T00:16:25.499Z,70.72
2017-12-03T00:18:53.158Z,72.25
2017-12-03T00:21:20.777Z,71.10
2017-12-03T00:23:48.540Z,67.62
2017-12-03T00:26:16.050Z,76.93
2017-12-03T00:28:43.578Z,74.25
2017-12-03T00:31:11.161Z,84.07
2017-12-03T00:33:38.720Z,64.45
2017-12-03T00:36:06.255Z,76.60
2017-12-03T00:38:34.042Z,69.70
2017-12-03T00:41:01.626Z,76.95
2017-12-03T00:43:29.357Z,86.05
2017-12-03T00:45:57.141Z,87.62
2017-12-03T00:48:24.706Z,75.95
2017-12-03T00:50:52.349Z,73.00
2017-12-03T00:53:19.942Z,82.90
2017-12-03T00:55:47.569Z,75.55
2017-12-03T00:58:15.131Z,75.00
2017-12-03T01:00:42.705Z,71.18
2017-12-03T01:03:10.246Z,81.72
2017-12-03T01:05:37.758Z,68.43
2017-12-03T01:08:05.549Z,73.55
2017-12-03T01:10:33.171Z,76.75
2017-12-03T01:13:00.790Z,77.45
2017-12-03T01:15:28.554Z,68.30
2017-12-03T01:17:56.132Z,66.00
2017-12-03T01:20:23.658Z,73.18
2017-12-03T01:22:51.333Z,83.07
2017-12-03T01:25:18.846Z,80.53
2017-12-03T01:27:46.372Z,76.12
2017-12-03T01:30:14.113Z,73.05
2017-12-03T01:32:41.671Z,82.60
2017-12-03T01:35:09.186Z,73.37
2017-12-03T01:37:36.899Z,74.03
2017-12-03T01:40:04.452Z,88.62
2017-12-03T01:42:32.012Z,80.35
2017-12-03T01:44:59.698Z,71.03
2017-12-03T01:47:27.219Z,77.75
2017-12-03T01:49:54.726Z,78.53
2017-12-03T01:52:22.452Z,75.25
2017-12-03T01:54:50.014Z,61.17
2017-12-03T01:57:17.578Z,62.58
2017-12-03T01:59:45.127Z,85.40
2017-12-03T02:02:12.704Z,79.90
2017-12-03T02:04:40.248Z,67.45
2017-12-03T02:07:07.802Z,64.22
2017-12-03T02:09:35.322Z,65.60
2017-12-03T02:12:02.838Z,71.95
2017-12-03T02:14:30.418Z,67.10
2017-12-03T02:16:57.945Z,82.15
2017-12-03T02:19:25.507Z,75.10
2017-12-03T02:21:53.263Z,67.78
2017-12-03T02:24:20.790Z,70.30
2017-12-03T02:26:48.307Z,71.55
2017-12-03T02:29:15.882Z,72.60
2017-12-03T02:31:43.398Z,72.40
2017-12-03T02:34:10.906Z,67.40
2017-12-03T02:36:38.619Z,67.22
2017-12-03T02:39:06.134Z,76.57
2017-12-03T02:41:33.651Z,77.03
2017-12-03T02:44:01.503Z,76.97
2017-12-03T02:46:29.063Z,71.85
2017-12-03T02:48:56.620Z,77.97
2017-12-03T02:51:24.384Z,71.07
2017-12-03T02:53:51.943Z,67.93
2017-12-03T02:56:19.458Z,71.50
2017-12-03T02:58:47.061Z,81.12
2017-12-03T03:01:14.662Z,73.43
2017-12-03T03:03:42.178Z,67.22
2017-12-03T03:06:09.943Z,69.05
2017-12-03T03:08:37.502Z,66.22
2017-12-03T03:11:05.087Z,84.53
2017-12-03T03:13:32.726Z,70.93
2017-12-03T03:16:00.246Z,67.18
2017-12-03T03:18:27.759Z,96.25
2017-12-03T03:20:55.502Z,75.55
2017-12-03T03:23:23.062Z,70.78
2017-12-03T03:25:50.577Z,74.68
2017-12-03T03:28:18.134Z,75.43
2017-12-03T03:30:45.678Z,74.07
2017-12-03T03:33:13.204Z,67.72
2017-12-03T03:35:40.958Z,77.12
2017-12-03T03:38:08.470Z,70.62
2017-12-03T03:40:35.982Z,93.18
2017-12-03T03:43:03.840Z,76.03
2017-12-03T03:45:31.357Z,75.03
2017-12-03T03:47:58.883Z,80.93
2017-12-03T03:50:26.614Z,77.68
2017-12-03T03:52:54.130Z,81.82
2017-12-03T03:55:21.654Z,74.62
2017-12-03T03:57:49.198Z,69.22
2017-12-03T04:00:16.759Z,75.85
2017-12-03T04:02:44.316Z,77.28
2017-12-03T04:05:11.878Z,74.65
2017-12-03T04:07:39.432Z,80.55
2017-12-03T04:10:06.944Z,76.87
2017-12-03T04:12:34.494Z,74.37
2017-12-03T04:15:02.018Z,70.03
2017-12-03T04:17:29.588Z,77.28
2017-12-03T04:19:57.245Z,78.15
2017-12-03T04:22:24.792Z,70.20
2017-12-03T04:24:52.325Z,75.03
2017-12-03T04:27:19.893Z,78.78
2017-12-03T04:29:47.414Z,73.12
2017-12-03T04:32:14.926Z,80.97
2017-12-03T04:34:42.476Z,80.25
2017-12-03T04:37:09.994Z,83.65
2017-12-03T04:39:37.523Z,71.90
2017-12-03T04:42:05.167Z,72.40
2017-12-03T04:44:32.716Z,76.90
2017-12-03T04:47:00.275Z,75.37
2017-12-03T04:49:28.039Z,71.87
2017-12-03T04:51:55.605Z,68.90
2017-12-03T04:54:23.158Z,75.93
2017-12-03T04:56:51.006Z,70.28
2017-12-03T04:59:18.518Z,67.87
2017-12-03T05:01:46.039Z,78.10
2017-12-03T05:04:13.711Z,74.05
2017-12-03T05:06:41.261Z,67.03
2017-12-03T05:09:08.820Z,80.68
2017-12-03T05:11:36.510Z,75.22
2017-12-03T05:14:04.033Z,67.43
2017-12-03T05:16:31.546Z,68.32
2017-12-03T05:18:59.094Z,82.25
2017-12-03T05:21:26.615Z,63.50
2017-12-03T05:23:54.154Z,67.30
2017-12-03T05:26:21.733Z,63.65
2017-12-03T05:28:49.292Z,76.55
2017-12-03T05:31:16.870Z,72.12
2017-12-03T05:33:44.720Z,67.93
2017-12-03T05:36:12.286Z,70.90
2017-12-03T05:38:39.839Z,69.20
2017-12-03T05:41:07.702Z,64.70
2017-12-03T05:43:35.264Z,72.62
2017-12-03T05:46:02.838Z,65.07
2017-12-03T05:48:30.382Z,62.70
2017-12-03T05:50:57.894Z,65.25
2017-12-03T05:53:25.411Z,65.90
2017-12-03T05:55:53.134Z,63.42
2017-12-03T05:58:20.657Z,72.87
2017-12-03T06:00:48.174Z,67.97
2017-12-03T06:03:15.733Z,77.70
2017-12-03T06:05:43.294Z,70.45
2017-12-03T06:08:10.853Z,69.32
2017-12-03T06:10:38.821Z,90.10
2017-12-03T06:13:06.372Z,70.28
2017-12-03T06:15:33.877Z,62.15
2017-12-03T06:18:01.454Z,64.32
2017-12-03T06:20:28.977Z,63.33
2017-12-03T06:22:56.487Z,67.00
2017-12-03T06:25:24.066Z,59.85
2017-12-03T06:27:51.585Z,63.92
2017-12-03T06:30:19.102Z,66.43
2017-12-03T06:32:46.667Z,66.47
2017-12-03T06:35:14.210Z,71.37
2017-12-03T06:37:41.769Z,77.20
2017-12-03T06:40:09.505Z,81.10
2017-12-03T06:42:37.029Z,72.00
2017-12-03T06:45:04.553Z,66.55
2017-12-03T06:47:32.313Z,69.40
2017-12-03T06:49:59.868Z,70.00
2017-12-03T06:52:27.447Z,68.32
2017-12-03T06:54:55.397Z,70.55
2017-12-03T06:57:22.975Z,62.08
2017-12-03T06:59:50.513Z,77.68
2017-12-03T07:02:18.280Z,71.62
2017-12-03T07:04:45.839Z,72.35
2017-12-03T07:07:13.348Z,64.62
2017-12-03T07:09:40.899Z,61.63
2017-12-03T07:12:08.423Z,61.45
2017-12-03T07:14:35.975Z,58.90
2017-12-03T07:17:03.736Z,50.83
2017-12-03T07:19:31.295Z,58.10
2017-12-03T07:21:58.807Z,53.95
2017-12-03T07:24:26.597Z,59.40
2017-12-03T07:26:54.222Z,55.17
2017-12-03T07:29:22.248Z,65.30
2017-12-03T07:31:49.988Z,58.47
2017-12-03T07:34:17.565Z,52.58
2017-12-03T07:36:45.078Z,48.40
2017-12-03T07:39:12.792Z,49.08
2017-12-03T07:41:40.454Z,56.28
2017-12-03T07:44:07.963Z,74.62
2017-12-03T07:46:35.537Z,58.75
2017-12-03T07:49:03.870Z,43.53
2017-12-03T07:51:31.983Z,42.47
2017-12-03T07:53:59.654Z,28.95
2017-12-03T07:56:27.255Z,37.67
2017-12-03T07:58:54.801Z,36.20
2017-12-03T08:01:24.313Z,33.30
2017-12-03T08:03:52.376Z,34.47
2017-12-03T08:06:21.368Z,37.30
2017-12-03T08:08:49.885Z,32.92
2017-12-03T08:11:17.512Z,27.98
2017-12-03T08:13:45.935Z,30.42
2017-12-03T08:16:13.591Z,28.90
2017-12-03T08:18:41.657Z,34.13
2017-12-03T08:21:09.288Z,31.77
2017-12-03T08:23:38.493Z,26.73
2017-12-03T08:26:06.150Z,26.52
2017-12-03T08:28:33.908Z,27.55
2017-12-03T08:31:01.646Z,27.87
2017-12-03T08:33:30.122Z,28.80
2017-12-03T08:35:57.669Z,26.12
2017-12-03T08:38:26.399Z,27.90
2017-12-03T08:40:53.957Z,25.40
2017-12-03T08:43:22.269Z,23.62
2017-12-03T08:45:49.996Z,34.83
2017-12-03T08:48:19.058Z,35.47
2017-12-03T08:50:46.855Z,29.92
2017-12-03T08:53:14.586Z,20.83
2017-12-03T08:55:42.158Z,27.87
2017-12-03T08:58:09.646Z,22.90
2017-12-03T09:00:37.194Z,29.87
2017-12-03T09:03:04.734Z,32.50
2017-12-03T09:05:32.430Z,23.65
2017-12-03T09:08:00.998Z,37.55
2017-12-03T09:10:28.660Z,26.48
2017-12-03T09:12:56.202Z,26.05
2017-12-03T09:15:24.497Z,32.33
2017-12-03T09:17:52.264Z,26.67
2017-12-03T09:20:20.022Z,23.87
2017-12-03T09:22:48.684Z,24.95
2017-12-03T09:25:16.281Z,25.05
2017-12-03T09:27:45.259Z,22.52
2017-12-03T09:30:13.072Z,25.42
2017-12-03T09:32:40.786Z,26.42
2017-12-03T09:35:08.552Z,18.58
2017-12-03T09:37:37.666Z,25.67
2017-12-03T09:40:06.947Z,30.00
2017-12-03T09:42:34.710Z,29.15
2017-12-03T09:45:02.884Z,27.95
2017-12-03T09:47:30.454Z,30.62
2017-12-03T09:49:58.411Z,20.58
2017-12-03T09:52:26.488Z,31.20
2017-12-03T09:54:55.382Z,25.40
2017-12-03T09:57:23.445Z,25.88
2017-12-03T09:59:51.208Z,18.95
2017-12-03T10:02:18.855Z,29.60
2017-12-03T10:04:46.449Z,26.62
2017-12-03T10:07:14.868Z,26.58
2017-12-03T10:09:42.468Z,26.83
2017-12-03T10:12:10.239Z,21.92
2017-12-03T10:14:37.793Z,26.58
2017-12-03T10:17:06.017Z,25.20
2017-12-03T10:19:33.717Z,27.73
2017-12-03T10:22:02.390Z,24.83
2017-12-03T10:24:30.280Z,23.08
2017-12-03T10:26:58.058Z,31.37
2017-12-03T10:29:26.389Z,23.83
2017-12-03T10:31:54.206Z,28.55
2017-12-03T10:34:22.279Z,25.17
2017-12-03T10:36:50.434Z,28.15
2017-12-03T10:39:18.430Z,25.73
2017-12-03T10:41:46.998Z,23.00
2017-12-03T10:44:16.102Z,25.90
2017-12-03T10:46:43.954Z,31.12
2017-12-03T10:49:11.722Z,34.30
2017-12-03T10:51:39.400Z,33.60
2017-12-03T10:54:07.008Z,30.23
2017-12-03T10:56:34.796Z,30.90
2017-12-03T10:59:02.755Z,30.85
2017-12-03T11:01:30.528Z,28.08
2017-12-03T11:03:58.284Z,25.83
2017-12-03T11:06:25.953Z,27.00
2017-12-03T11:08:53.717Z,27.23
2017-12-03T11:11:21.265Z,26.87
2017-12-03T11:13:48.866Z,25.80
2017-12-03T11:16:16.598Z,29.33
2017-12-03T11:18:44.161Z,30.20
2017-12-03T11:21:12.311Z,29.45
2017-12-03T11:23:40.384Z,25.85
2017-12-03T11:26:07.915Z,24.52
2017-12-03T11:28:35.550Z,29.50
2017-12-03T11:31:03.076Z,30.65
2017-12-03T11:33:30.660Z,24.27
2017-12-03T11:35:58.222Z,26.73
2017-12-03T11:38:25.784Z,25.37
2017-12-03T11:40:53.372Z,23.92
2017-12-03T11:43:20.980Z,25.73
2017-12-03T11:45:48.653Z,25.88
2017-12-03T11:48:16.404Z,23.85
2017-12-03T11:50:44.067Z,27.92
2017-12-03T11:53:11.625Z,26.55
2017-12-03T11:55:39.187Z,22.85
2017-12-03T11:58:07.152Z,26.67
2017-12-03T12:00:34.694Z,28.80
2017-12-03T12:03:02.448Z,25.83
2017-12-03T12:05:30.261Z,26.12
2017-12-03T12:07:58.738Z,32.15
2017-12-03T12:10:26.279Z,29.27
2017-12-03T12:12:54.145Z,28.87
2017-12-03T12:15:21.910Z,27.15
2017-12-03T12:17:49.526Z,31.40
2017-12-03T12:20:17.438Z,26.23
2017-12-03T12:22:45.007Z,26.40
2017-12-03T12:25:12.570Z,28.90
2017-12-03T12:27:40.373Z,29.50
2017-12-03T12:30:07.954Z,29.58
2017-12-03T12:32:35.535Z,25.17
2017-12-03T12:35:03.406Z,26.67
2017-12-03T12:37:31.174Z,26.10
2017-12-03T12:39:59.040Z,33.10
2017-12-03T12:42:26.630Z,27.77
2017-12-03T12:44:54.155Z,23.30
2017-12-03T12:47:21.774Z,29.70
2017-12-03T12:49:49.488Z,27.73
2017-12-03T12:52:17.036Z,32.45
2017-12-03T12:54:44.699Z,29.12
2017-12-03T12:57:13.179Z,24.52
2017-12-03T12:59:40.728Z,31.25
2017-12-03T13:02:08.297Z,23.70
2017-12-03T13:04:36.419Z,23.08
2017-12-03T13:07:04.063Z,31.85
2017-12-03T13:09:31.590Z,27.33
2017-12-03T13:11:59.374Z,28.67
2017-12-03T13:14:27.117Z,30.52
2017-12-03T13:16:54.775Z,35.47
2017-12-03T13:19:22.414Z,31.73
2017-12-03T13:21:49.999Z,29.55
2017-12-03T13:24:17.667Z,24.05
2017-12-03T13:26:45.647Z,25.37
2017-12-03T13:29:13.393Z,20.20
2017-12-03T13:31:40.935Z,27.55
2017-12-03T13:34:08.922Z,27.62
2017-12-03T13:36:36.582Z,25.98
2017-12-03T13:39:04.450Z,24.58
2017-12-03T13:41:32.422Z,24.08
2017-12-03T13:43:59.934Z,29.40
2017-12-03T13:46:27.454Z,33.17
2017-12-03T13:48:55.203Z,19.75
2017-12-03T13:51:22.756Z,19.73
2017-12-03T13:53:50.319Z,27.73
2017-12-03T13:56:17.872Z,28.73
2017-12-03T13:58:45.456Z,26.75
2017-12-03T14:01:13.096Z,36.88
2017-12-03T14:03:40.979Z,29.48
2017-12-03T14:06:08.495Z,37.10
2017-12-03T14:08:36.099Z,31.27
2017-12-03T14:11:04.137Z,26.45
2017-12-03T14:13:31.941Z,30.73
2017-12-03T14:15:59.778Z,29.45
2017-12-03T14:18:27.354Z,36.90
2017-12-03T14:20:54.949Z,31.42
2017-12-03T14:23:22.469Z,27.27
2017-12-03T14:25:50.421Z,29.17
2017-12-03T14:28:18.090Z,30.55
2017-12-03T14:30:45.660Z,35.90
2017-12-03T14:33:13.515Z,36.63
2017-12-03T14:35:41.097Z,31.30
2017-12-03T14:38:08.787Z,33.83
2017-12-03T14:40:36.398Z,28.58
2017-12-03T14:43:03.927Z,32.65
2017-12-03T14:45:31.452Z,34.65
2017-12-03T14:47:59.026Z,36.45
2017-12-03T14:50:26.551Z,35.35
2017-12-03T14:52:54.138Z,39.55
2017-12-03T14:55:21.956Z,32.53
2017-12-03T14:57:49.949Z,39.55
2017-12-03T15:00:17.816Z,33.90
2017-12-03T15:02:45.863Z,30.62
2017-12-03T15:05:13.934Z,35.85
2017-12-03T15:07:42.619Z,42.13
2017-12-03T15:10:11.070Z,33.72
2017-12-03T15:12:39.541Z,37.40
2017-12-03T15:15:07.246Z,34.40
2017-12-03T15:17:35.211Z,36.65
2017-12-03T15:20:02.828Z,33.83
2017-12-03T15:22:30.636Z,42.88
2017-12-03T15:24:58.816Z,42.97
2017-12-03T15:27:27.188Z,35.38
2017-12-03T15:29:55.619Z,40.10
2017-12-03T15:32:23.335Z,37.40
2017-12-03T15:34:51.197Z,39.78
2017-12-03T15:37:19.168Z,35.33
2017-12-03T15:39:46.843Z,51.58
2017-12-03T15:42:14.860Z,39.33
2017-12-03T15:44:44.198Z,34.28
2017-12-03T15:47:11.962Z,36.85
2017-12-03T15:49:40.115Z,35.30
2017-12-03T15:52:07.814Z,40.95
2017-12-03T15:54:36.278Z,38.90
2017-12-03T15:57:03.938Z,35.28
2017-12-03T15:59:31.704Z,36.28
2017-12-03T16:01:59.980Z,43.28
2017-12-03T16:04:27.774Z,34.28
2017-12-03T16:06:55.650Z,31.65
2017-12-03T16:09:24.316Z,44.05
2017-12-03T16:11:51.957Z,45.80
2017-12-03T16:14:19.619Z,44.45
2017-12-03T16:16:47.693Z,45.95
2017-12-03T16:19:15.310Z,36.63
2017-12-03T16:21:43.218Z,43.97
2017-12-03T16:24:12.010Z,37.92
2017-12-03T16:26:39.648Z,39.22
2017-12-03T16:29:07.242Z,38.42
2017-12-03T16:31:35.055Z,39.35
2017-12-03T16:34:02.862Z,37.35
2017-12-03T16:36:32.010Z,32.67
2017-12-03T16:38:59.656Z,38.08
2017-12-03T16:41:27.359Z,34.80
2017-12-03T16:43:56.062Z,37.50
2017-12-03T16:46:24.650Z,43.60
2017-12-03T16:48:52.255Z,38.75
2017-12-03T16:51:20.718Z,41.95
2017-12-03T16:53:47.993Z,46.40
2017-12-03T16:56:15.815Z,34.17
2017-12-03T16:58:43.700Z,33.42
2017-12-03T17:01:12.962Z,31.42
2017-12-03T17:03:40.949Z,38.25
2017-12-03T17:06:08.915Z,26.48
2017-12-03T17:08:37.494Z,35.55
2017-12-03T17:11:05.212Z,32.33
2017-12-03T17:13:33.851Z,33.60
2017-12-03T17:16:02.884Z,34.40
2017-12-03T17:18:30.909Z,36.17
2017-12-03T17:20:58.883Z,34.10
2017-12-03T17:23:26.944Z,27.30
2017-12-03T17:25:54.744Z,30.58
2017-12-03T17:28:22.474Z,28.45
2017-12-03T17:30:50.129Z,31.50
2017-12-03T17:33:18.520Z,33.90
2017-12-03T17:35:46.991Z,30.88
2017-12-03T17:38:15.006Z,29.83
2017-12-03T17:40:42.578Z,32.50
2017-12-03T17:43:10.402Z,36.95
2017-12-03T17:45:38.458Z,31.30
2017-12-03T17:48:06.222Z,29.20
2017-12-03T17:50:33.835Z,26.70
2017-12-03T17:53:01.749Z,28.50
2017-12-03T17:55:29.309Z,31.48
2017-12-03T17:57:57.146Z,29.58
2017-12-03T18:00:25.455Z,27.67
2017-12-03T18:02:53.043Z,30.10
2017-12-03T18:05:20.977Z,25.33
2017-12-03T18:07:49.084Z,30.73
2017-12-03T18:10:16.710Z,35.65
2017-12-03T18:12:44.402Z,37.72
2017-12-03T18:15:13.264Z,33.80
2017-12-03T18:17:41.536Z,35.55
2017-12-03T18:20:09.322Z,33.88
2017-12-03T18:22:37.372Z,25.08
2017-12-03T18:25:05.317Z,31.33
2017-12-03T18:27:33.112Z,25.45
2017-12-03T18:30:01.239Z,33.17
2017-12-03T18:32:29.137Z,28.25
2017-12-03T18:34:57.012Z,27.02
2017-12-03T18:37:24.881Z,31.40
2017-12-03T18:39:52.964Z,32.20
2017-12-03T18:42:20.664Z,29.58
2017-12-03T18:44:49.158Z,37.38
2017-12-03T18:47:17.056Z,32.95
2017-12-03T18:49:44.726Z,32.40
2017-12-03T18:52:12.711Z,27.15
2017-12-03T18:54:41.490Z,28.23
2017-12-03T18:57:09.243Z,34.42
2017-12-03T18:59:37.517Z,24.45
2017-12-03T19:02:05.414Z,28.62
2017-12-03T19:04:33.386Z,21.17
2017-12-03T19:07:02.918Z,26.23
2017-12-03T19:09:30.518Z,22.67
2017-12-03T19:11:58.404Z,33.00
2017-12-03T19:14:26.662Z,23.42
2017-12-03T19:16:55.098Z,33.05
2017-12-03T19:19:22.806Z,26.75
2017-12-03T19:21:50.804Z,33.03
2017-12-03T19:24:18.662Z,30.02
2017-12-03T19:26:46.405Z,25.00
2017-12-03T19:29:14.265Z,30.37
2017-12-03T19:31:41.937Z,33.22
2017-12-03T19:34:09.764Z,32.83
2017-12-03T19:36:37.409Z,25.52
2017-12-03T19:39:05.198Z,31.58
2017-12-03T19:41:33.092Z,37.85
2017-12-03T19:44:01.265Z,35.97
2017-12-03T19:46:28.822Z,28.00
2017-12-03T19:48:56.690Z,32.65
2017-12-03T19:51:24.862Z,33.45
2017-12-03T19:53:52.631Z,25.00
2017-12-03T19:56:21.504Z,26.25
2017-12-03T19:58:49.498Z,28.02
2017-12-03T20:01:17.385Z,29.50
2017-12-03T20:03:45.041Z,29.52
2017-12-03T20:06:13.101Z,39.10
2017-12-03T20:08:41.071Z,25.95
2017-12-03T20:11:08.817Z,48.35
2017-12-03T20:13:36.684Z,30.10
2017-12-03T20:16:04.550Z,28.77
2017-12-03T20:18:32.423Z,28.90
2017-12-03T20:21:00.385Z,25.65
2017-12-03T20:23:28.149Z,25.10
2017-12-03T20:25:56.025Z,22.42
2017-12-03T20:28:26.851Z,32.30
2017-12-03T20:30:54.821Z,29.30
2017-12-03T20:33:23.250Z,34.85
2017-12-03T20:35:53.077Z,31.87
2017-12-03T20:38:21.535Z,28.67
2017-12-03T20:40:50.353Z,32.78
2017-12-03T20:43:18.456Z,32.10
2017-12-03T20:45:46.729Z,36.45
2017-12-03T20:48:14.513Z,37.05
2017-12-03T20:50:42.564Z,43.42
2017-12-03T20:53:10.342Z,29.87
2017-12-03T20:55:38.195Z,37.60
2017-12-03T20:58:06.840Z,40.90
2017-12-03T21:00:35.370Z,33.70
2017-12-03T21:03:03.255Z,38.08
2017-12-03T21:05:31.110Z,37.00
2017-12-03T21:07:59.073Z,33.13
2017-12-03T21:10:27.133Z,37.85
2017-12-03T21:12:55.390Z,34.42
2017-12-03T21:15:23.802Z,34.42
2017-12-03T21:17:51.676Z,37.17
2017-12-03T21:20:19.527Z,40.30
2017-12-03T21:22:47.306Z,36.75
2017-12-03T21:25:15.287Z,34.63
2017-12-03T21:27:44.049Z,37.47
2017-12-03T21:30:12.280Z,45.22
2017-12-03T21:32:40.103Z,37.05
2017-12-03T21:35:08.470Z,29.08
2017-12-03T21:37:36.530Z,40.33
2017-12-03T21:40:04.318Z,39.60
2017-12-03T21:42:32.468Z,36.97
2017-12-03T21:45:00.133Z,37.53
2017-12-03T21:47:28.303Z,36.30
2017-12-03T21:49:56.386Z,32.72
2017-12-03T21:52:24.140Z,44.50
2017-12-03T21:54:51.943Z,30.20
2017-12-03T21:57:19.972Z,31.20
2017-12-03T21:59:47.837Z,35.40
2017-12-03T22:02:15.504Z,41.40
2017-12-03T22:04:43.469Z,32.20
2017-12-03T22:07:11.335Z,40.90
2017-12-03T22:09:39.110Z,33.95
2017-12-03T22:12:06.965Z,35.25
2017-12-03T22:14:35.856Z,34.78
2017-12-03T22:17:03.637Z,34.53
2017-12-03T22:19:31.384Z,34.95
2017-12-03T22:21:59.052Z,38.30
2017-12-03T22:24:27.742Z,40.15
2017-12-03T22:26:56.433Z,44.58
2017-12-03T22:29:24.897Z,40.17
2017-12-03T22:31:53.523Z,36.08
2017-12-03T22:34:22.307Z,34.28
2017-12-03T22:36:49.934Z,36.38
2017-12-03T22:39:17.711Z,38.92
2017-12-03T22:41:45.736Z,36.50
2017-12-03T22:44:13.267Z,35.22
2017-12-03T22:46:40.780Z,42.45
2017-12-03T22:49:08.386Z,33.95
2017-12-03T22:51:35.898Z,36.75
2017-12-03T22:54:03.421Z,32.60
2017-12-03T22:56:31.227Z,42.97
2017-12-03T22:58:58.802Z,34.45
2017-12-03T23:01:26.317Z,35.95
2017-12-03T23:03:54.103Z,35.65
2017-12-03T23:06:21.714Z,32.15
2017-12-03T23:08:49.231Z,37.67
2017-12-03T23:11:17.089Z,37.17
2017-12-03T23:13:44.599Z,35.15
2017-12-03T23:16:12.138Z,32.58
2017-12-03T23:18:40.073Z,32.75
2017-12-03T23:21:07.583Z,37.40
2017-12-03T23:23:35.095Z,32.80
2017-12-03T23:26:02.955Z,41.80
2017-12-03T23:28:30.515Z,36.65
2017-12-03T23:30:58.176Z,32.78
2017-12-03T23:33:26.227Z,35.33
2017-12-03T23:35:53.743Z,29.42
2017-12-03T23:38:21.259Z,34.72
2017-12-03T23:40:48.834Z,37.33
2017-12-03T23:43:16.398Z,43.17
2017-12-03T23:45:43.940Z,35.47
2017-12-03T23:48:11.750Z,37.83
2017-12-03T23:50:39.263Z,35.92
2017-12-03T23:53:06.777Z,36.15
2017-12-03T23:55:34.381Z,33.20
2017-12-03T23:58:01.941Z,36.70
